Terminal Aerodrome Forecast
Issued by NWS

Home | Current Version | Previous Version | Text Only | Print | Product List | Glossary On
Versions: 1 2 3 4 5 6 7 8 9 10 11 12 13 14 15 16 17 18 19 20 21 22 23 24 25 26 27 28 29 30 31 32 33 34 35 36
000
FTUS45 KCYS 051251 AAA
TAFAIA
TAF AMD
KAIA 051251Z 0513/0612 VRB03KT 1/4SM FG OVC002
      TEMPO 0513/0515 1SM BR SCT001
     FM051500 18007KT P6SM SKC
     FM051800 18010KT P6SM SCT100
     FM060000 15010KT P6SM VCTS BKN060CB BKN100
     FM060600 16012KT P6SM BKN200=

USA.gov is the U.S. government's official web portal to all federal, state and local government web resources and services.